createdAt,value
2023-03-30T00:00:47.715Z,2.41
2023-03-30T00:03:23.198Z,2.46
2023-03-30T00:05:57.143Z,2.48
2023-03-30T00:08:30.682Z,2.46
2023-03-30T00:11:07.100Z,2.51
2023-03-30T00:13:41.648Z,2.47
2023-03-30T00:16:16.084Z,2.50
2023-03-30T00:18:49.214Z,2.56
2023-03-30T00:21:22.178Z,2.56
2023-03-30T00:23:55.115Z,2.64
2023-03-30T00:26:28.855Z,2.53
2023-03-30T00:29:01.566Z,2.48
2023-03-30T00:31:34.413Z,2.44
2023-03-30T00:34:07.155Z,2.32
2023-03-30T00:36:39.971Z,2.56
2023-03-30T00:39:13.283Z,2.63
2023-03-30T00:41:46.443Z,2.62
2023-03-30T00:44:48.923Z,2.38
2023-03-30T00:47:21.824Z,2.61
2023-03-30T00:49:55.194Z,2.61
2023-03-30T00:52:28.355Z,2.62
2023-03-30T00:55:01.791Z,2.63
2023-03-30T00:57:35.109Z,2.69
2023-03-30T01:00:11.052Z,2.68
2023-03-30T01:02:49.146Z,2.69
2023-03-30T01:05:24.385Z,2.72
2023-03-30T01:07:58.433Z,2.72
2023-03-30T01:10:31.183Z,2.69
2023-03-30T01:13:03.842Z,2.64
2023-03-30T01:15:43.126Z,2.65
2023-03-30T01:18:33.637Z,2.60
2023-03-30T01:21:36.167Z,2.47
2023-03-30T01:24:35.362Z,2.54
2023-03-30T01:27:22.473Z,2.46
2023-03-30T01:30:25.673Z,2.47
2023-03-30T01:33:29.833Z,2.49
2023-03-30T01:36:38.217Z,2.63
2023-03-30T01:39:40.621Z,2.58
2023-03-30T01:42:22.164Z,2.63
2023-03-30T01:45:02.492Z,2.71
2023-03-30T01:47:40.063Z,2.61
2023-03-30T01:50:19.365Z,2.61
2023-03-30T01:52:57.581Z,2.67
2023-03-30T01:55:35.805Z,2.73
2023-03-30T01:58:13.922Z,2.76
2023-03-30T02:00:52.122Z,2.83
2023-03-30T02:03:28.734Z,2.84
2023-03-30T02:06:06.553Z,2.86
2023-03-30T02:08:41.544Z,2.90
2023-03-30T02:11:14.642Z,2.89
2023-03-30T02:13:48.234Z,2.88
2023-03-30T02:16:29.087Z,2.88
2023-03-30T02:19:02.475Z,2.90
2023-03-30T02:21:35.781Z,2.93
2023-03-30T02:24:18.074Z,2.95
2023-03-30T02:26:53.276Z,2.93
2023-03-30T02:29:25.723Z,2.92
2023-03-30T02:32:01.865Z,2.95
2023-03-30T02:34:49.665Z,2.95
2023-03-30T02:37:43.993Z,3.01
2023-03-30T02:40:20.945Z,3.02
2023-03-30T02:43:07.493Z,2.98
2023-03-30T02:45:53.113Z,2.99
2023-03-30T02:48:41.732Z,3.01
2023-03-30T02:51:33.604Z,2.99
2023-03-30T02:54:36.152Z,2.95
2023-03-30T02:57:34.944Z,2.94
2023-03-30T03:00:33.283Z,2.96
2023-03-30T03:03:10.965Z,2.94
2023-03-30T03:05:45.779Z,2.99
2023-03-30T03:08:24.118Z,3.02
2023-03-30T03:10:57.306Z,3.06
2023-03-30T03:13:29.998Z,3.04
2023-03-30T03:16:05.006Z,3.04
2023-03-30T03:18:40.265Z,3.03
2023-03-30T03:21:14.408Z,3.00
2023-03-30T03:23:48.673Z,2.99
2023-03-30T03:26:24.562Z,2.97
2023-03-30T03:28:57.637Z,2.98
2023-03-30T03:31:31.033Z,2.96
2023-03-30T03:34:04.630Z,2.95
2023-03-30T03:36:56.424Z,2.94
2023-03-30T03:39:31.783Z,2.93
2023-03-30T03:42:15.433Z,2.93
2023-03-30T03:44:58.768Z,2.91
2023-03-30T03:47:33.617Z,2.89
2023-03-30T03:50:10.183Z,2.91
2023-03-30T03:52:45.795Z,2.89
2023-03-30T03:55:18.734Z,2.89
2023-03-30T03:57:52.445Z,2.90
2023-03-30T04:00:27.254Z,2.94
2023-03-30T04:03:00.385Z,2.93
2023-03-30T04:05:33.837Z,2.94
2023-03-30T04:08:11.129Z,2.95
2023-03-30T04:10:45.704Z,2.92
2023-03-30T04:13:30.668Z,2.97
2023-03-30T04:16:39.690Z,2.94
2023-03-30T04:19:42.381Z,2.91
2023-03-30T04:22:25.883Z,2.92
2023-03-30T04:25:15.419Z,2.91
2023-03-30T04:28:12.168Z,2.91
2023-03-30T04:31:06.281Z,2.91
2023-03-30T04:33:52.008Z,2.84
2023-03-30T04:36:47.782Z,2.77
2023-03-30T04:39:31.116Z,2.87
2023-03-30T04:42:14.477Z,2.88
2023-03-30T04:45:05.865Z,2.82
2023-03-30T04:48:05.401Z,2.75
2023-03-30T04:51:10.256Z,2.80
2023-03-30T04:54:09.272Z,2.81
2023-03-30T04:57:14.720Z,2.85
2023-03-30T04:59:54.316Z,2.90
2023-03-30T05:02:48.111Z,2.90
2023-03-30T05:05:41.089Z,2.88
2023-03-30T05:08:21.578Z,2.91
2023-03-30T05:11:29.441Z,2.97
2023-03-30T05:14:25.656Z,3.03
2023-03-30T05:17:25.202Z,3.13
2023-03-30T05:20:18.881Z,3.30
2023-03-30T05:23:10.899Z,3.45
2023-03-30T05:26:04.965Z,3.56
2023-03-30T05:28:37.929Z,3.67
2023-03-30T05:31:30.798Z,3.75
2023-03-30T05:34:26.781Z,3.77
2023-03-30T05:37:05.904Z,3.83
2023-03-30T05:39:41.777Z,3.88
2023-03-30T05:42:34.759Z,3.92
2023-03-30T05:45:29.440Z,3.93
2023-03-30T05:48:08.417Z,3.96
2023-03-30T05:50:52.476Z,3.96
2023-03-30T05:53:34.910Z,3.98
2023-03-30T05:56:44.057Z,3.97
2023-03-30T05:59:43.154Z,3.95
2023-03-30T06:02:49.567Z,3.97
2023-03-30T06:05:24.949Z,3.98
2023-03-30T06:08:01.653Z,4.01
2023-03-30T06:10:37.045Z,4.01
2023-03-30T06:13:14.493Z,4.08
2023-03-30T06:15:53.558Z,4.02
2023-03-30T06:18:29.236Z,4.09
2023-03-30T06:21:15.215Z,4.17
2023-03-30T06:23:57.240Z,4.25
2023-03-30T06:26:33.176Z,4.27
2023-03-30T06:29:06.737Z,4.36
2023-03-30T06:31:37.596Z,4.46
2023-03-30T06:34:30.585Z,4.47
2023-03-30T06:37:03.867Z,4.61
2023-03-30T06:39:38.218Z,4.69
2023-03-30T06:42:12.303Z,4.80
2023-03-30T06:45:16.976Z,4.97
2023-03-30T06:47:49.568Z,5.05
2023-03-30T06:50:23.683Z,5.10
2023-03-30T06:52:56.500Z,5.21
2023-03-30T06:55:29.895Z,5.29
2023-03-30T06:58:03.492Z,5.35
2023-03-30T07:00:36.382Z,5.41
2023-03-30T07:03:30.332Z,5.45
2023-03-30T07:06:12.971Z,5.61
2023-03-30T07:08:46.145Z,5.79
2023-03-30T07:11:22.916Z,5.80
2023-03-30T07:13:58.706Z,5.87
2023-03-30T07:16:32.347Z,5.96
2023-03-30T07:19:07.017Z,6.22
2023-03-30T07:21:40.336Z,6.42
2023-03-30T07:24:13.811Z,6.63
2023-03-30T07:26:46.862Z,6.76
2023-03-30T07:29:19.561Z,6.87
2023-03-30T07:31:57.229Z,6.93
2023-03-30T07:34:29.913Z,7.22
2023-03-30T07:37:03.954Z,7.42
2023-03-30T07:39:38.249Z,7.65
2023-03-30T07:42:13.898Z,7.74
2023-03-30T07:44:46.914Z,7.87
2023-03-30T07:47:22.358Z,8.16
2023-03-30T07:49:56.189Z,8.37
2023-03-30T07:52:30.124Z,8.53
2023-03-30T07:55:08.054Z,8.79
2023-03-30T07:57:54.623Z,8.92
2023-03-30T08:00:28.320Z,9.03
2023-03-30T08:03:39.957Z,9.17
2023-03-30T08:06:13.672Z,9.34
2023-03-30T08:08:49.896Z,9.67
2023-03-30T08:11:23.148Z,9.85
2023-03-30T08:13:56.324Z,9.84
2023-03-30T08:16:29.402Z,9.97
2023-03-30T08:19:02.425Z,10.09
2023-03-30T08:21:37.514Z,10.07
2023-03-30T08:24:11.661Z,10.07
2023-03-30T08:26:45.585Z,10.20
2023-03-30T08:29:19.105Z,10.32
2023-03-30T08:31:50.106Z,10.47
2023-03-30T08:34:23.466Z,10.60
2023-03-30T08:36:58.456Z,10.75
2023-03-30T08:39:33.690Z,10.93
2023-03-30T08:42:41.204Z,11.13
2023-03-30T08:45:15.737Z,11.13
2023-03-30T08:47:54.974Z,11.32
2023-03-30T08:50:34.513Z,11.36
2023-03-30T08:53:09.635Z,11.46
2023-03-30T08:55:48.678Z,11.42
2023-03-30T08:58:28.824Z,11.49
2023-03-30T09:01:10.552Z,11.62
2023-03-30T09:03:50.611Z,11.68
2023-03-30T09:06:31.278Z,11.76
2023-03-30T09:09:07.404Z,11.76
2023-03-30T09:11:42.175Z,11.81
2023-03-30T09:14:23.249Z,11.84
2023-03-30T09:17:02.242Z,11.80
2023-03-30T09:19:45.462Z,11.56
2023-03-30T09:22:20.665Z,11.57
2023-03-30T09:24:54.005Z,11.46
2023-03-30T09:27:47.438Z,11.46
2023-03-30T09:30:26.947Z,11.52
2023-03-30T09:33:07.074Z,11.57
2023-03-30T09:35:43.372Z,11.62
2023-03-30T09:38:16.946Z,11.70
2023-03-30T09:40:57.436Z,11.80
2023-03-30T09:43:38.273Z,11.94
2023-03-30T09:46:11.895Z,12.09
2023-03-30T09:48:47.022Z,12.08
2023-03-30T09:51:29.806Z,12.27
2023-03-30T09:54:07.517Z,12.25
2023-03-30T09:56:45.609Z,12.20
2023-03-30T09:59:33.001Z,12.34
2023-03-30T10:02:22.024Z,12.23
2023-03-30T10:05:07.004Z,12.31
2023-03-30T10:07:42.541Z,12.19
2023-03-30T10:10:33.551Z,12.23
2023-03-30T10:13:14.424Z,12.32
2023-03-30T10:15:53.943Z,12.34
2023-03-30T10:18:36.715Z,12.28
2023-03-30T10:21:27.957Z,12.26
2023-03-30T10:24:08.547Z,12.46
2023-03-30T10:26:45.075Z,12.71
2023-03-30T10:29:22.167Z,12.73
2023-03-30T10:32:00.302Z,12.89
2023-03-30T10:34:41.006Z,12.97
2023-03-30T10:37:17.930Z,13.17
2023-03-30T10:39:53.975Z,13.36
2023-03-30T10:42:31.495Z,13.59
2023-03-30T10:45:06.223Z,13.78
2023-03-30T10:47:54.278Z,13.85
2023-03-30T10:50:36.276Z,14.15
2023-03-30T10:53:21.706Z,14.01
2023-03-30T10:56:03.815Z,14.16
2023-03-30T10:58:53.226Z,14.09
2023-03-30T11:01:32.553Z,14.08
2023-03-30T11:04:22.594Z,14.04
2023-03-30T11:07:00.173Z,14.12
2023-03-30T11:09:39.898Z,14.28
2023-03-30T11:12:20.317Z,14.34
2023-03-30T11:14:58.231Z,14.34
2023-03-30T11:17:34.644Z,13.98
2023-03-30T11:20:19.182Z,13.90
2023-03-30T11:22:56.674Z,13.85
2023-03-30T11:25:35.355Z,13.76
2023-03-30T11:28:20.607Z,13.78
2023-03-30T11:31:00.186Z,13.79
2023-03-30T11:33:38.323Z,13.85
2023-03-30T11:36:19.154Z,13.66
2023-03-30T11:39:00.033Z,13.57
2023-03-30T11:41:40.396Z,13.62
2023-03-30T11:44:14.184Z,13.55
2023-03-30T11:46:55.773Z,13.55
2023-03-30T11:49:48.118Z,13.57
2023-03-30T11:52:33.196Z,13.42
2023-03-30T11:55:32.262Z,13.56
2023-03-30T11:58:24.168Z,13.62
2023-03-30T12:01:09.496Z,13.55
2023-03-30T12:03:44.712Z,13.40
2023-03-30T12:06:33.422Z,13.57
2023-03-30T12:09:25.234Z,13.66
2023-03-30T12:12:05.138Z,13.63
2023-03-30T12:14:59.748Z,13.74
2023-03-30T12:17:42.017Z,13.79
2023-03-30T12:20:27.530Z,13.89
2023-03-30T12:23:06.808Z,13.96
2023-03-30T12:26:04.984Z,13.88
2023-03-30T12:29:17.354Z,13.95
2023-03-30T12:32:21.140Z,13.95
2023-03-30T12:34:54.038Z,13.72
2023-03-30T12:37:29.558Z,13.39
2023-03-30T12:40:09.470Z,13.36
2023-03-30T12:42:54.645Z,13.31
2023-03-30T12:45:33.656Z,13.21
2023-03-30T12:48:27.904Z,13.36
2023-03-30T12:51:11.810Z,13.17
2023-03-30T12:54:03.213Z,13.31
2023-03-30T12:56:45.901Z,13.36
2023-03-30T12:59:44.873Z,13.29
2023-03-30T13:02:38.925Z,13.46
2023-03-30T13:05:20.111Z,13.61
2023-03-30T13:07:55.928Z,13.72
2023-03-30T13:10:44.515Z,13.89
2023-03-30T13:13:46.136Z,13.94
2023-03-30T13:16:38.898Z,13.95
2023-03-30T13:19:23.301Z,13.91
2023-03-30T13:22:19.588Z,13.88
2023-03-30T13:24:58.407Z,13.79
2023-03-30T13:27:35.835Z,13.88
2023-03-30T13:30:16.801Z,13.92
2023-03-30T13:33:07.515Z,14.00
2023-03-30T13:35:51.265Z,14.05
2023-03-30T13:38:47.642Z,14.07
2023-03-30T13:41:33.365Z,14.06
2023-03-30T13:44:29.173Z,14.20
2023-03-30T13:47:09.252Z,14.30
2023-03-30T13:49:51.550Z,14.39
2023-03-30T13:52:33.359Z,14.50
2023-03-30T13:55:12.082Z,14.68
2023-03-30T13:57:46.015Z,14.81
2023-03-30T14:00:40.628Z,14.87
2023-03-30T14:03:31.866Z,14.88
2023-03-30T14:06:08.322Z,14.90
2023-03-30T14:08:43.071Z,14.90
2023-03-30T14:11:21.591Z,14.80
2023-03-30T14:13:57.144Z,14.78
2023-03-30T14:16:35.381Z,14.72
2023-03-30T14:19:14.928Z,14.71
2023-03-30T14:21:49.286Z,14.66
2023-03-30T14:24:30.083Z,14.60
2023-03-30T14:27:14.933Z,14.50
2023-03-30T14:29:50.468Z,14.48
2023-03-30T14:32:25.669Z,14.40
2023-03-30T14:34:58.822Z,14.41
2023-03-30T14:37:34.045Z,14.41
2023-03-30T14:40:16.154Z,14.49
2023-03-30T14:42:48.932Z,14.46
2023-03-30T14:45:22.765Z,14.42
2023-03-30T14:47:57.032Z,14.34
2023-03-30T14:50:30.719Z,14.32
2023-03-30T14:53:04.444Z,14.28
2023-03-30T14:55:38.875Z,14.29
2023-03-30T14:58:16.322Z,14.24
2023-03-30T15:00:49.016Z,14.17
2023-03-30T15:03:32.789Z,14.06
2023-03-30T15:06:09.835Z,14.03
2023-03-30T15:08:47.853Z,14.01
2023-03-30T15:11:24.337Z,13.95
2023-03-30T15:13:59.546Z,13.87
2023-03-30T15:16:36.168Z,13.81
2023-03-30T15:19:14.264Z,13.74
2023-03-30T15:21:47.022Z,13.78
2023-03-30T15:24:23.729Z,13.79
2023-03-30T15:27:00.904Z,13.76
2023-03-30T15:29:34.649Z,13.76
2023-03-30T15:32:09.699Z,13.74
2023-03-30T15:35:04.100Z,13.64
2023-03-30T15:37:37.578Z,13.63
2023-03-30T15:40:27.671Z,13.53
2023-03-30T15:43:21.057Z,13.47
2023-03-30T15:45:56.522Z,13.37
2023-03-30T15:48:34.753Z,13.39
2023-03-30T15:51:11.472Z,13.40
2023-03-30T15:53:55.058Z,13.41
2023-03-30T15:56:35.359Z,13.40
2023-03-30T15:59:13.699Z,13.37
2023-03-30T16:01:49.832Z,13.42
2023-03-30T16:04:24.516Z,13.40
2023-03-30T16:06:57.241Z,13.41
2023-03-30T16:09:30.388Z,13.36
2023-03-30T16:12:03.265Z,13.25
2023-03-30T16:14:37.064Z,13.17
2023-03-30T16:17:13.407Z,13.17
2023-03-30T16:19:46.529Z,13.09
2023-03-30T16:22:19.378Z,13.04
2023-03-30T16:24:53.643Z,12.98
2023-03-30T16:27:26.476Z,12.89
2023-03-30T16:29:59.359Z,12.83
2023-03-30T16:32:35.644Z,12.74
2023-03-30T16:35:09.609Z,12.65
2023-03-30T16:37:42.467Z,12.60
2023-03-30T16:40:27.569Z,12.55
2023-03-30T16:43:03.327Z,12.43
2023-03-30T16:45:36.910Z,12.36
2023-03-30T16:48:11.448Z,12.09
2023-03-30T16:50:47.975Z,12.00
2023-03-30T16:53:20.819Z,11.94
2023-03-30T16:55:54.056Z,12.00
2023-03-30T16:58:26.687Z,11.94
2023-03-30T17:01:04.535Z,11.96
2023-03-30T17:03:37.795Z,11.97
2023-03-30T17:06:11.407Z,11.95
2023-03-30T17:08:43.123Z,11.91
2023-03-30T17:11:17.449Z,11.87
2023-03-30T17:13:51.466Z,11.89
2023-03-30T17:16:27.643Z,11.87
2023-03-30T17:19:01.480Z,11.84
2023-03-30T17:21:35.945Z,11.85
2023-03-30T17:24:10.614Z,11.76
2023-03-30T17:26:46.311Z,11.77
2023-03-30T17:29:19.514Z,11.74
2023-03-30T17:31:52.735Z,11.68
2023-03-30T17:34:25.433Z,11.70
2023-03-30T17:36:58.471Z,11.72
2023-03-30T17:39:33.015Z,11.71
2023-03-30T17:42:06.303Z,11.65
2023-03-30T17:44:39.267Z,11.62
2023-03-30T17:47:12.483Z,11.66
2023-03-30T17:49:43.574Z,11.65
2023-03-30T17:52:17.219Z,11.57
2023-03-30T17:54:52.065Z,11.47
2023-03-30T17:57:26.457Z,11.44
2023-03-30T17:59:59.885Z,11.45
2023-03-30T18:02:32.757Z,11.40
2023-03-30T18:05:05.783Z,11.30
2023-03-30T18:07:41.259Z,11.27
2023-03-30T18:10:27.134Z,11.28
2023-03-30T18:12:59.965Z,11.28
2023-03-30T18:15:33.398Z,11.24
2023-03-30T18:18:06.875Z,11.18
2023-03-30T18:20:43.377Z,11.15
2023-03-30T18:23:16.607Z,10.97
2023-03-30T18:25:49.556Z,10.95
2023-03-30T18:28:24.029Z,10.97
2023-03-30T18:30:59.195Z,10.95
2023-03-30T18:33:33.486Z,10.89
2023-03-30T18:36:08.563Z,10.88
2023-03-30T18:38:41.724Z,10.82
2023-03-30T18:41:16.185Z,10.83
2023-03-30T18:43:48.852Z,10.76
2023-03-30T18:46:21.714Z,10.73
2023-03-30T18:48:54.549Z,10.68
2023-03-30T18:51:30.874Z,10.68
2023-03-30T18:54:03.563Z,10.59
2023-03-30T18:56:38.291Z,10.62
2023-03-30T18:59:12.997Z,10.55
2023-03-30T19:01:46.386Z,10.55
2023-03-30T19:04:19.011Z,10.56
2023-03-30T19:06:53.456Z,10.51
2023-03-30T19:09:40.234Z,10.57
2023-03-30T19:12:16.702Z,10.57
2023-03-30T19:14:47.773Z,10.50
2023-03-30T19:17:20.443Z,10.34
2023-03-30T19:19:55.345Z,10.33
2023-03-30T19:22:28.274Z,10.33
2023-03-30T19:25:01.846Z,10.30
2023-03-30T19:27:34.843Z,10.33
2023-03-30T19:30:11.894Z,10.33
2023-03-30T19:32:46.101Z,10.23
2023-03-30T19:35:19.742Z,10.20
2023-03-30T19:37:52.538Z,10.23
2023-03-30T19:40:26.021Z,10.18
2023-03-30T19:43:04.796Z,10.16
2023-03-30T19:45:39.048Z,10.15
2023-03-30T19:48:12.484Z,10.15
2023-03-30T19:50:46.319Z,10.12
2023-03-30T19:53:19.078Z,10.15
2023-03-30T19:55:51.822Z,10.13
2023-03-30T19:58:24.750Z,10.11
2023-03-30T20:00:58.225Z,10.06
2023-03-30T20:03:31.798Z,10.00
2023-03-30T20:06:05.057Z,10.03
2023-03-30T20:08:38.116Z,10.07
2023-03-30T20:11:12.943Z,10.03
2023-03-30T20:13:48.244Z,10.00
2023-03-30T20:16:22.888Z,9.95
2023-03-30T20:18:57.817Z,9.91
2023-03-30T20:21:31.600Z,9.90
2023-03-30T20:24:08.458Z,9.87
2023-03-30T20:26:43.065Z,9.86
2023-03-30T20:29:15.814Z,9.88
2023-03-30T20:31:49.639Z,9.90
2023-03-30T20:34:24.735Z,9.91
2023-03-30T20:36:57.917Z,9.92
2023-03-30T20:39:31.558Z,9.87
2023-03-30T20:42:08.737Z,9.91
2023-03-30T20:44:41.655Z,9.90
2023-03-30T20:47:18.019Z,9.93
2023-03-30T20:49:51.148Z,9.93
2023-03-30T20:52:24.399Z,9.94
2023-03-30T20:54:58.007Z,9.94
2023-03-30T20:57:32.454Z,9.93
2023-03-30T21:00:07.762Z,9.90
2023-03-30T21:02:41.195Z,9.90
2023-03-30T21:05:16.602Z,9.93
2023-03-30T21:07:49.862Z,9.96
2023-03-30T21:10:22.693Z,9.95
2023-03-30T21:12:55.360Z,9.94
2023-03-30T21:15:28.002Z,9.93
2023-03-30T21:18:02.412Z,9.89
2023-03-30T21:20:35.262Z,9.88
2023-03-30T21:23:08.119Z,9.95
2023-03-30T21:25:43.110Z,9.95
2023-03-30T21:28:16.027Z,9.98
2023-03-30T21:30:49.132Z,9.98
2023-03-30T21:33:22.334Z,9.93
2023-03-30T21:35:56.027Z,9.92
2023-03-30T21:38:30.731Z,9.90
2023-03-30T21:41:06.759Z,9.73
2023-03-30T21:43:43.306Z,9.71
2023-03-30T21:46:18.410Z,9.70
2023-03-30T21:48:53.949Z,9.72
2023-03-30T21:51:29.371Z,9.83
2023-03-30T21:54:02.521Z,9.81
2023-03-30T21:56:34.923Z,9.83
2023-03-30T21:59:08.438Z,9.83
2023-03-30T22:01:39.822Z,9.87
2023-03-30T22:04:13.235Z,9.81
2023-03-30T22:06:46.236Z,9.84
2023-03-30T22:09:19.234Z,9.84
2023-03-30T22:11:54.069Z,9.86
2023-03-30T22:14:26.759Z,9.90
2023-03-30T22:17:03.384Z,9.92
2023-03-30T22:19:37.549Z,9.94
2023-03-30T22:22:10.115Z,9.93
2023-03-30T22:24:42.866Z,9.91
2023-03-30T22:27:16.788Z,9.90
2023-03-30T22:29:50.074Z,9.88
2023-03-30T22:32:22.867Z,9.87
2023-03-30T22:34:56.361Z,9.84
2023-03-30T22:37:29.486Z,9.85
2023-03-30T22:40:02.138Z,9.88
2023-03-30T22:42:36.257Z,9.84
2023-03-30T22:45:11.988Z,9.87
2023-03-30T22:47:44.938Z,9.80
2023-03-30T22:50:18.456Z,9.77
2023-03-30T22:52:51.019Z,9.74
2023-03-30T22:55:24.528Z,9.76
2023-03-30T22:57:58.304Z,9.72
2023-03-30T23:00:29.414Z,9.72
2023-03-30T23:03:02.052Z,9.72
2023-03-30T23:05:35.554Z,9.70
2023-03-30T23:08:06.479Z,9.68
2023-03-30T23:10:39.832Z,9.66
2023-03-30T23:13:12.618Z,9.69
2023-03-30T23:15:48.999Z,9.70
2023-03-30T23:18:21.671Z,9.71
2023-03-30T23:20:58.430Z,9.66
2023-03-30T23:23:31.414Z,9.63
2023-03-30T23:26:09.732Z,9.60
2023-03-30T23:28:45.613Z,9.57
2023-03-30T23:31:19.638Z,9.54
2023-03-30T23:33:53.170Z,9.48
2023-03-30T23:36:28.072Z,9.45
2023-03-30T23:39:00.703Z,9.35
2023-03-30T23:41:33.585Z,9.34
2023-03-30T23:44:06.453Z,9.33
2023-03-30T23:46:39.736Z,9.35
2023-03-30T23:49:12.547Z,9.30
2023-03-30T23:51:45.396Z,9.29
2023-03-30T23:54:18.686Z,9.28
2023-03-30T23:56:57.965Z,9.26
2023-03-30T23:59:30.885Z,9.20
